Time;durP1;ratioP1;P1;durP2;ratioP2;P2;SDS_P1;SDS_P2;PMS_P1;PMS_P2;Temp;Humidity;BMP_temperature;BMP_pressure;BME280_temperature;BME280_humidity;BME280_pressure;Samples;Min_cycle;Max_cycle;Signal;HPM_P1;HPM_P2
2023/02/08 00:00:54;;;;;;;;;;;;;;;-2.85;71.84;103799.56;4107675;28;20403;-64
2023/02/08 00:02:56;;;;;;;;;;;;;;;-2.90;72.10;103792.56;4107095;28;20025;-64
2023/02/08 00:04:58;;;;;;;;;;;;;;;-2.91;72.28;103796.09;4105787;28;20025;-65
2023/02/08 00:07:00;;;;;;;;;;;;;;;-2.90;72.77;103796.94;4107052;28;20025;-64
2023/02/08 00:09:02;;;;;;;;;;;;;;;-2.87;73.07;103790.78;4123179;28;19961;-65
2023/02/08 00:11:05;;;;;;;;;;;;;;;-2.90;73.05;103797.84;4106460;28;20025;-65
2023/02/08 00:13:07;;;;;;;;;;;;;;;-2.94;73.05;103793.47;4106749;28;20009;-65
2023/02/08 00:15:10;;;;;;;;;;;;;;;-2.95;73.24;103785.53;4104930;28;20029;-64
2023/02/08 00:17:12;;;;;;;;;;;;;;;-2.94;73.07;103797.91;4106316;28;20395;-65
2023/02/08 00:19:14;;;;;;;;;;;;;;;-2.94;73.18;103788.19;4107278;28;20025;-65
2023/02/08 00:21:17;;;;;;;;;;;;;;;-2.95;72.91;103797.00;4106326;28;20040;-64
2023/02/08 00:23:19;;;;;;;;;;;;;;;-2.97;72.96;103787.34;4106680;28;20013;-65
2023/02/08 00:25:21;;;;;;;;;;;;;;;-2.96;73.06;103799.69;4107275;28;20029;-65
2023/02/08 00:27:23;;;;;;;;;;;;;;;-2.99;72.82;103790.00;4106570;28;20000;-65
2023/02/08 00:29:25;;;;;;;;;;;;;;;-3.02;73.08;103790.03;4106817;28;20488;-65
2023/02/08 00:31:29;;;;;;;;;;;;;;;-3.03;73.40;103793.56;4105960;28;20012;-64
2023/02/08 00:33:31;;;;;;;;;;;;;;;-3.03;73.36;103790.03;4107543;28;19931;-64
2023/02/08 00:35:33;;;;;;;;;;;;;;;-3.08;73.50;103790.94;4106998;28;20041;-64
2023/02/08 00:37:35;;;;;;;;;;;;;;;-3.05;73.67;103795.34;4106787;28;20041;-63
2023/02/08 00:39:37;;;;;;;;;;;;;;;-3.06;73.58;103792.72;4120859;28;20090;-63
2023/02/08 00:41:39;;;;;;;;;;;;;;;-3.07;73.68;103802.41;4106366;28;20017;-64
2023/02/08 00:43:41;;;;;;;;;;;;;;;-3.11;73.55;103796.25;4121178;28;20017;-63
2023/02/08 00:45:44;;;;;;;;;;;;;;;-3.09;73.76;103790.97;4106906;28;20428;-62
2023/02/08 00:47:47;;;;;;;;;;;;;;;-3.07;73.71;103786.56;4106511;28;20032;-65
2023/02/08 00:49:50;;;;;;;;;;;;;;;-3.04;73.41;103794.47;4106960;28;20029;-65
2023/02/08 00:51:52;;;;;;;;;;;;;;;-3.18;73.49;103777.81;4106357;28;20023;-64
2023/02/08 00:53:53;;;;;;;;;;;;;;;-3.11;73.20;103787.47;4106634;28;20014;-65
2023/02/08 00:55:56;;;;;;;;;;;;;;;-3.11;73.23;103793.63;4104880;28;20013;-64
2023/02/08 00:57:58;;;;;;;;;;;;;;;-3.07;73.22;103794.50;4105484;28;20029;-63
2023/02/08 01:00:00;;;;;;;;;;;;;;;-3.02;73.12;103794.44;4106598;28;20017;-64
2023/02/08 01:02:01;;;;;;;;;;;;;;;-3.05;72.57;103797.13;4105693;28;20026;-64
2023/02/08 01:04:06;;;;;;;;;;;;;;;-3.10;72.34;103794.50;4106540;28;20041;-65
2023/02/08 01:06:11;;;;;;;;;;;;;;;-3.16;72.24;103799.84;4110511;28;19941;-64
2023/02/08 01:08:13;;;;;;;;;;;;;;;-3.19;72.52;103790.16;4115929;28;20464;-65
2023/02/08 01:10:15;;;;;;;;;;;;;;;-3.15;72.67;103791.00;4089568;28;20464;-65
2023/02/08 01:12:17;;;;;;;;;;;;;;;-3.12;72.72;103794.53;4105362;28;20021;-65
2023/02/08 01:14:19;;;;;;;;;;;;;;;-3.15;72.19;103796.28;4106334;28;20025;-64
2023/02/08 01:16:22;;;;;;;;;;;;;;;-3.27;72.04;103806.09;4119335;28;20042;-64
2023/02/08 01:18:24;;;;;;;;;;;;;;;-3.39;72.46;103808.81;4089748;28;20370;-66
2023/02/08 01:20:28;;;;;;;;;;;;;;;-3.41;72.89;103810.59;4103724;28;20021;-65
2023/02/08 01:22:31;;;;;;;;;;;;;;;-3.37;73.18;103803.53;4106717;28;20462;-65
2023/02/08 01:24:35;;;;;;;;;;;;;;;-3.38;73.14;103807.06;4106034;28;20025;-65
2023/02/08 01:26:37;;;;;;;;;;;;;;;-3.38;73.18;103800.00;4104316;28;20021;-65
2023/02/08 01:28:41;;;;;;;;;;;;;;;-3.42;72.84;103792.13;4106403;28;20028;-65
2023/02/08 01:30:44;;;;;;;;;;;;;;;-3.42;73.06;103805.31;4105422;28;20026;-65
2023/02/08 01:32:46;;;;;;;;;;;;;;;-3.40;73.07;103806.19;4104614;28;20432;-65
2023/02/08 01:34:48;;;;;;;;;;;;;;;-3.45;72.69;103811.50;4120104;28;20020;-65
2023/02/08 01:36:51;;;;;;;;;;;;;;;-3.50;72.90;103806.25;4103638;28;20038;-65
2023/02/08 01:38:54;;;;;;;;;;;;;;;-3.52;72.97;103804.53;4105518;28;20017;-66
2023/02/08 01:40:56;;;;;;;;;;;;;;;-3.58;72.82;103801.91;4105135;28;20497;-65
2023/02/08 01:42:58;;;;;;;;;;;;;;;-3.59;72.94;103803.66;4106024;28;20853;-65
2023/02/08 01:45:28;;;;;;;;;;;;;;;-3.60;72.88;103801.03;4119756;28;20041;-65
2023/02/08 01:47:30;;;;;;;;;;;;;;;-3.63;72.91;103808.09;4104757;28;20565;-64
2023/02/08 01:49:33;;;;;;;;;;;;;;;-3.68;73.01;103796.69;4118488;28;20016;-64
2023/02/08 01:51:35;;;;;;;;;;;;;;;-3.68;73.36;103799.34;4105139;28;20040;-64
2023/02/08 01:53:41;;;;;;;;;;;;;;;-3.72;73.37;103805.50;4104298;28;20013;-64
2023/02/08 01:55:44;;;;;;;;;;;;;;;-3.76;73.28;103811.72;4104606;28;20058;-63
2023/02/08 01:57:51;;;;;;;;;;;;;;;-3.78;73.44;103809.94;4104373;28;20017;-64
2023/02/08 01:59:54;;;;;;;;;;;;;;;-3.82;73.68;103814.38;4104944;28;20026;-64
2023/02/08 02:01:57;;;;;;;;;;;;;;;-3.83;74.04;103809.97;4105048;28;20017;-64
2023/02/08 02:04:00;;;;;;;;;;;;;;;-3.80;74.08;103813.47;4119044;28;20089;-64
2023/02/08 02:06:04;;;;;;;;;;;;;;;-3.75;73.93;103816.09;4105353;28;20021;-64
2023/02/08 02:08:06;;;;;;;;;;;;;;;-3.70;73.85;103814.31;4103494;28;20029;-63
2023/02/08 02:10:12;;;;;;;;;;;;;;;-3.62;73.69;103809.00;4105173;28;20447;-64
2023/02/08 02:12:15;;;;;;;;;;;;;;;-3.62;73.60;103801.06;4119876;28;20017;-64
2023/02/08 02:14:17;;;;;;;;;;;;;;;-3.60;73.76;103798.38;4089194;28;20066;-64
2023/02/08 02:16:21;;;;;;;;;;;;;;;-3.61;73.65;103797.53;4119715;28;20020;-65
2023/02/08 02:18:24;;;;;;;;;;;;;;;-3.68;73.35;103801.97;4104317;28;20060;-64
2023/02/08 02:20:33;;;;;;;;;;;;;;;-3.73;73.61;103803.78;4103926;28;20152;-64
2023/02/08 02:22:49;;;;;;;;;;;;;;;-3.76;73.89;103801.16;4104390;28;20026;-63
2023/02/08 02:24:58;;;;;;;;;;;;;;;-3.76;73.98;103800.25;4062482;28;20029;-64
2023/02/08 02:27:19;;;;;;;;;;;;;;;-3.76;73.99;103800.25;4087632;28;20021;-64
2023/02/08 02:29:26;;;;;;;;;;;;;;;-3.78;74.06;103804.66;4105242;28;20021;-64
2023/02/08 02:31:35;;;;;;;;;;;;;;;-3.77;74.05;103804.66;4103622;28;20432;-64
2023/02/08 02:33:40;;;;;;;;;;;;;;;-3.80;73.88;103810.81;4104875;28;20013;-61
2023/02/08 02:35:44;;;;;;;;;;;;;;;-3.78;73.77;103818.75;4104303;28;20436;-64
2023/02/08 02:37:50;;;;;;;;;;;;;;;-3.80;73.76;103815.25;4104791;28;20017;-64
2023/02/08 02:39:54;;;;;;;;;;;;;;;-3.80;73.81;103816.13;4119999;28;20026;-63
2023/02/08 02:44:14;;;;;;;;;;;;;;;-3.79;73.84;103811.72;4093186;28;20026;-64
2023/02/08 02:46:21;;;;;;;;;;;;;;;-3.78;73.76;103807.31;4104841;28;20017;-64
2023/02/08 02:48:26;;;;;;;;;;;;;;;-3.82;73.56;103806.47;4104964;28;20029;-64
2023/02/08 02:50:30;;;;;;;;;;;;;;;-3.80;73.84;103799.41;4107339;28;20025;-64
2023/02/08 02:52:34;;;;;;;;;;;;;;;-3.81;73.65;103800.28;4109349;28;20016;-64
2023/02/08 02:54:38;;;;;;;;;;;;;;;-3.82;73.89;103798.53;4107681;28;20032;-64
2023/02/08 02:56:41;;;;;;;;;;;;;;;-3.80;73.92;103804.69;4107352;28;20018;-64
2023/02/08 02:58:43;;;;;;;;;;;;;;;-3.74;73.77;103803.78;4108552;28;20009;-64
2023/02/08 03:00:45;;;;;;;;;;;;;;;-3.74;73.58;103803.78;4107118;28;20009;-64
2023/02/08 03:02:47;;;;;;;;;;;;;;;-3.72;73.51;103794.06;4107532;28;20022;-64
2023/02/08 03:04:53;;;;;;;;;;;;;;;-3.70;73.39;103802.84;4108205;28;20496;-64
2023/02/08 03:06:58;;;;;;;;;;;;;;;-3.70;73.16;103816.06;4105744;28;20441;-64
2023/02/08 03:09:16;;;;;;;;;;;;;;;-3.74;73.13;103809.94;4108111;28;20021;-64
2023/02/08 03:11:22;;;;;;;;;;;;;;;-3.78;73.32;103809.94;4105237;28;19934;-63
2023/02/08 03:13:26;;;;;;;;;;;;;;;-3.81;73.50;103810.84;4107452;28;19969;-65
2023/02/08 03:15:29;;;;;;;;;;;;;;;-3.84;73.61;103810.84;4107110;28;20487;-64
2023/02/08 03:17:35;;;;;;;;;;;;;;;-3.89;73.51;103815.28;4107857;28;20017;-65
2023/02/08 03:19:38;;;;;;;;;;;;;;;-3.90;73.59;103811.78;4107568;28;20033;-64
2023/02/08 03:21:43;;;;;;;;;;;;;;;-3.87;73.64;103808.22;4107191;28;20021;-65
2023/02/08 03:23:46;;;;;;;;;;;;;;;-3.86;73.51;103810.84;4107148;28;20457;-64
2023/02/08 03:25:49;;;;;;;;;;;;;;;-3.83;73.51;103807.34;4107092;28;20444;-63
2023/02/08 03:27:56;;;;;;;;;;;;;;;-3.90;73.14;103811.78;4107124;28;20380;-64
2023/02/08 03:29:59;;;;;;;;;;;;;;;-3.92;73.08;103807.38;4107964;28;20511;-63
2023/02/08 03:32:02;;;;;;;;;;;;;;;-3.96;73.12;103809.16;4105435;28;20029;-64
2023/02/08 03:34:05;;;;;;;;;;;;;;;-3.99;73.27;103811.81;4105633;28;20453;-65
2023/02/08 03:36:08;;;;;;;;;;;;;;;-4.07;73.38;103803.94;4105755;28;20017;-65
2023/02/08 03:38:13;;;;;;;;;;;;;;;-4.12;73.55;103810.09;4107749;28;20025;-64
2023/02/08 03:40:16;;;;;;;;;;;;;;;-4.14;73.70;103810.09;4107189;28;20028;-63
2023/02/08 03:42:21;;;;;;;;;;;;;;;-4.18;73.88;103805.75;4107251;28;20025;-64
2023/02/08 03:44:24;;;;;;;;;;;;;;;-4.22;74.05;103798.72;4107365;28;20013;-64
2023/02/08 03:46:27;;;;;;;;;;;;;;;-4.16;74.20;103811.88;4106852;28;20028;-64
2023/02/08 03:48:29;;;;;;;;;;;;;;;-4.11;74.20;103811.88;4106859;28;20484;-62
2023/02/08 03:50:32;;;;;;;;;;;;;;;-4.11;73.94;103801.31;4106799;28;20016;-64
2023/02/08 03:52:33;;;;;;;;;;;;;;;-4.12;74.36;103807.47;4107415;28;20025;-64
2023/02/08 03:54:38;;;;;;;;;;;;;;;-4.14;74.33;103809.25;4107599;28;20481;-64
2023/02/08 03:56:41;;;;;;;;;;;;;;;-4.14;74.57;103799.56;4105990;28;20028;-63
2023/02/08 03:58:44;;;;;;;;;;;;;;;-4.13;74.61;103809.25;4106856;28;20025;-62
2023/02/08 04:00:48;;;;;;;;;;;;;;;-4.13;74.69;103798.69;4105487;28;20394;-64
2023/02/08 04:02:52;;;;;;;;;;;;;;;-4.10;74.65;103800.44;4107206;28;20025;-63
2023/02/08 04:04:54;;;;;;;;;;;;;;;-4.10;74.82;103803.94;4107792;28;20029;-64
2023/02/08 04:06:56;;;;;;;;;;;;;;;-4.10;74.83;103805.72;4105444;28;20395;-63
2023/02/08 04:08:58;;;;;;;;;;;;;;;-4.08;74.92;103802.16;4106671;28;20028;-64
2023/02/08 04:11:01;;;;;;;;;;;;;;;-4.02;74.92;103803.91;4105397;28;20037;-64
2023/02/08 04:13:03;;;;;;;;;;;;;;;-4.02;74.55;103802.13;4107685;28;20591;-64
2023/02/08 04:15:05;;;;;;;;;;;;;;;-4.02;74.40;103796.84;4106716;28;20024;-64
2023/02/08 04:17:07;;;;;;;;;;;;;;;-4.05;74.28;103806.56;4104842;28;20375;-64
2023/02/08 04:19:09;;;;;;;;;;;;;;;-4.04;74.42;103803.91;4106674;28;20024;-64
2023/02/08 04:21:11;;;;;;;;;;;;;;;-4.04;74.25;103809.19;4105541;28;20017;-63
2023/02/08 04:23:13;;;;;;;;;;;;;;;-4.03;74.49;103810.97;4107218;28;20041;-62
2023/02/08 04:25:15;;;;;;;;;;;;;;;-4.03;74.34;103800.41;4107159;28;20046;-64
2023/02/08 04:27:18;;;;;;;;;;;;;;;-4.02;74.12;103807.41;4105832;28;20026;-64
2023/02/08 04:29:20;;;;;;;;;;;;;;;-4.02;74.17;103802.13;4106909;28;20025;-63
2023/02/08 04:31:22;;;;;;;;;;;;;;;-4.01;74.10;103800.41;4106313;28;20021;-62
2023/02/08 04:33:24;;;;;;;;;;;;;;;-4.02;74.20;103799.50;4107368;28;20013;-64
2023/02/08 04:35:26;;;;;;;;;;;;;;;-4.01;74.25;103803.03;4106004;28;20036;-63
2023/02/08 04:37:28;;;;;;;;;;;;;;;-4.00;74.20;103805.69;4106368;28;20450;-63
2023/02/08 04:39:30;;;;;;;;;;;;;;;-4.01;74.06;103803.03;4106853;28;20024;-64
2023/02/08 04:41:32;;;;;;;;;;;;;;;-3.99;74.29;103801.25;4120517;28;20005;-64
2023/02/08 04:43:35;;;;;;;;;;;;;;;-3.99;74.38;103807.41;4090058;28;20018;-64
2023/02/08 04:45:37;;;;;;;;;;;;;;;-3.97;74.33;103794.19;4105953;28;20378;-64
2023/02/08 04:47:39;;;;;;;;;;;;;;;-3.98;74.11;103800.38;4106528;28;20025;-64
2023/02/08 04:49:41;;;;;;;;;;;;;;;-3.99;74.08;103798.63;4106236;28;20025;-65
2023/02/08 04:51:43;;;;;;;;;;;;;;;-4.00;73.85;103802.13;4105256;28;20017;-64
2023/02/08 04:53:45;;;;;;;;;;;;;;;-4.04;73.76;103800.41;4106631;28;20026;-64
2023/02/08 04:55:47;;;;;;;;;;;;;;;-4.06;74.01;103808.34;4106747;28;20021;-64
2023/02/08 04:57:49;;;;;;;;;;;;;;;-4.06;73.91;103808.34;4105997;28;20029;-64
2023/02/08 04:59:52;;;;;;;;;;;;;;;-4.07;73.97;103806.56;4106735;28;20017;-63
2023/02/08 05:01:54;;;;;;;;;;;;;;;-4.04;74.09;103803.91;4105441;28;20692;-64
2023/02/08 05:03:56;;;;;;;;;;;;;;;-4.03;74.07;103807.44;4105988;28;20028;-64
2023/02/08 05:05:58;;;;;;;;;;;;;;;-4.01;73.99;103810.97;4104772;28;20013;-64
2023/02/08 05:08:00;;;;;;;;;;;;;;;-4.01;74.04;103808.31;4106710;28;20013;-64
2023/02/08 05:10:03;;;;;;;;;;;;;;;-4.00;73.88;103810.06;4120358;28;19957;-63
2023/02/08 05:12:05;;;;;;;;;;;;;;;-4.03;73.79;103815.34;4088405;29;20013;-62
2023/02/08 05:14:07;;;;;;;;;;;;;;;-4.04;73.87;103817.13;4105629;28;20048;-62
2023/02/08 05:16:10;;;;;;;;;;;;;;;-4.06;73.80;103812.72;4106004;28;20013;-63
2023/02/08 05:18:12;;;;;;;;;;;;;;;-4.08;73.79;103815.38;4105898;28;20064;-62
2023/02/08 05:20:14;;;;;;;;;;;;;;;-4.11;73.93;103812.75;4105719;28;20013;-63
2023/02/08 05:22:16;;;;;;;;;;;;;;;-4.14;74.10;103815.38;4106146;28;20463;-62
2023/02/08 05:24:18;;;;;;;;;;;;;;;-4.16;74.02;103817.16;4106066;28;20021;-63
2023/02/08 05:26:20;;;;;;;;;;;;;;;-4.16;74.21;103814.53;4105894;28;20484;-63
2023/02/08 05:28:22;;;;;;;;;;;;;;;-4.17;74.14;103820.69;4106295;28;20057;-61
2023/02/08 05:30:24;;;;;;;;;;;;;;;-4.20;74.10;103818.94;4105370;28;20358;-63
2023/02/08 05:32:27;;;;;;;;;;;;;;;-4.22;74.21;103822.47;4105108;28;21450;-63
2023/02/08 05:34:29;;;;;;;;;;;;;;;-4.22;74.45;103814.56;4106519;28;20021;-64
2023/02/08 05:36:31;;;;;;;;;;;;;;;-4.22;74.45;103815.41;4105682;28;20021;-64
2023/02/08 05:38:33;;;;;;;;;;;;;;;-4.20;74.52;103824.22;4105661;28;20017;-64
2023/02/08 05:40:35;;;;;;;;;;;;;;;-4.19;74.24;103823.31;4105536;28;20025;-64
2023/02/08 05:42:37;;;;;;;;;;;;;;;-4.19;74.41;103823.31;4105747;28;20021;-64
2023/02/08 05:44:39;;;;;;;;;;;;;;;-4.21;74.21;103824.25;4118492;28;20033;-63
2023/02/08 05:46:41;;;;;;;;;;;;;;;-4.24;74.21;103822.47;4105152;28;20374;-64
2023/02/08 05:48:44;;;;;;;;;;;;;;;-4.25;74.18;103825.97;4103829;28;20027;-62
2023/02/08 05:50:46;;;;;;;;;;;;;;;-4.26;74.42;103829.53;4104008;28;20038;-62
2023/02/08 05:52:49;;;;;;;;;;;;;;;-4.27;74.42;103827.75;4106554;28;20026;-62
2023/02/08 05:54:51;;;;;;;;;;;;;;;-4.26;74.54;103826.88;4104167;28;20020;-63
2023/02/08 05:56:53;;;;;;;;;;;;;;;-4.25;74.70;103820.69;4105027;28;20022;-63
2023/02/08 05:58:55;;;;;;;;;;;;;;;-4.19;74.71;103835.66;4105507;28;20022;-64
2023/02/08 06:00:57;;;;;;;;;;;;;;;-4.17;74.60;103828.59;4104153;28;20026;-63
2023/02/08 06:02:59;;;;;;;;;;;;;;;-4.15;74.35;103829.50;4105523;28;20435;-63
2023/02/08 06:05:02;;;;;;;;;;;;;;;-4.15;74.32;103829.50;4105961;28;20017;-63
2023/02/08 06:07:04;;;;;;;;;;;;;;;-4.16;74.06;103827.72;4102060;28;20021;-63
2023/02/08 06:09:06;;;;;;;;;;;;;;;-4.17;73.95;103832.13;4105210;28;20052;-62
2023/02/08 06:11:08;;;;;;;;;;;;;;;-4.19;73.84;103831.25;4102346;28;20373;-64
2023/02/08 06:13:10;;;;;;;;;;;;;;;-4.18;73.95;103837.41;4103666;28;20430;-63
2023/02/08 06:15:12;;;;;;;;;;;;;;;-4.19;73.77;103836.53;4103523;28;20009;-64
2023/02/08 06:17:14;;;;;;;;;;;;;;;-4.21;73.61;103843.56;4104733;28;20020;-65
2023/02/08 06:19:16;;;;;;;;;;;;;;;-4.23;74.01;103836.53;4104105;28;20037;-64
2023/02/08 06:21:20;;;;;;;;;;;;;;;-4.24;74.07;103845.34;4103489;28;20022;-63
2023/02/08 06:23:22;;;;;;;;;;;;;;;-4.26;74.22;103837.44;4104187;28;20140;-64
2023/02/08 06:25:24;;;;;;;;;;;;;;;-4.27;74.31;103840.94;4102507;28;20037;-62
2023/02/08 06:27:26;;;;;;;;;;;;;;;-4.26;74.35;103840.09;4103526;28;21611;-64
2023/02/08 06:29:28;;;;;;;;;;;;;;;-4.24;74.38;103834.81;4103465;28;20017;-64
2023/02/08 06:31:30;;;;;;;;;;;;;;;-4.23;74.30;103840.06;4103632;28;20005;-64
2023/02/08 06:33:32;;;;;;;;;;;;;;;-4.23;74.18;103841.81;4118284;28;20020;-65
2023/02/08 06:35:34;;;;;;;;;;;;;;;-4.23;74.21;103844.44;4104076;28;20721;-61
2023/02/08 06:37:37;;;;;;;;;;;;;;;-4.24;74.34;103848.88;4105612;28;20018;-64
2023/02/08 06:39:39;;;;;;;;;;;;;;;-4.26;74.08;103852.38;4104100;28;20013;-64
2023/02/08 06:41:41;;;;;;;;;;;;;;;-4.26;74.20;103855.91;4103945;28;20025;-64
2023/02/08 06:43:43;;;;;;;;;;;;;;;-4.25;74.19;103862.06;4105815;28;20377;-65
2023/02/08 06:45:45;;;;;;;;;;;;;;;-4.27;74.22;103858.56;4103923;28;20022;-64
2023/02/08 06:47:47;;;;;;;;;;;;;;;-4.26;74.38;103858.56;4105502;28;19930;-62
2023/02/08 06:49:50;;;;;;;;;;;;;;;-4.25;74.24;103864.69;4106068;28;20021;-61
2023/02/08 06:51:52;;;;;;;;;;;;;;;-4.27;74.24;103859.44;4105136;28;20017;-63
2023/02/08 06:53:55;;;;;;;;;;;;;;;-4.25;74.21;103860.28;4104444;28;20025;-63
2023/02/08 06:55:57;;;;;;;;;;;;;;;-4.23;74.47;103861.19;4104176;28;20013;-64
2023/02/08 06:57:59;;;;;;;;;;;;;;;-4.22;74.36;103857.66;4103374;28;20479;-63
2023/02/08 07:00:02;;;;;;;;;;;;;;;-4.19;74.44;103857.63;4105329;28;20065;-64
2023/02/08 07:02:04;;;;;;;;;;;;;;;-4.17;74.34;103860.28;4104412;28;20466;-61
2023/02/08 07:04:06;;;;;;;;;;;;;;;-4.18;74.21;103863.81;4104096;28;20024;-64
2023/02/08 07:06:11;;;;;;;;;;;;;;;-4.18;74.25;103859.41;4104296;28;20444;-64
2023/02/08 07:08:13;;;;;;;;;;;;;;;-4.15;74.35;103855.88;4105045;28;20018;-64
2023/02/08 07:10:17;;;;;;;;;;;;;;;-4.13;74.18;103866.44;4104605;28;20029;-64
2023/02/08 07:12:18;;;;;;;;;;;;;;;-4.14;74.15;103859.41;4104833;28;20024;-63
2023/02/08 07:14:20;;;;;;;;;;;;;;;-4.13;74.18;103856.75;4103934;28;20026;-64
2023/02/08 07:16:22;;;;;;;;;;;;;;;-4.11;74.27;103862.91;4103677;28;20017;-64
2023/02/08 07:18:24;;;;;;;;;;;;;;;-4.09;74.16;103863.78;4104324;28;20655;-63
2023/02/08 07:20:26;;;;;;;;;;;;;;;-4.07;74.25;103859.38;4104383;28;20248;-64
2023/02/08 07:22:28;;;;;;;;;;;;;;;-4.05;74.18;103852.31;4104493;28;20017;-63
2023/02/08 07:24:30;;;;;;;;;;;;;;;-4.02;74.04;103851.44;4105437;28;20017;-64
2023/02/08 07:26:34;;;;;;;;;;;;;;;-4.02;73.87;103851.44;4105084;28;20012;-64
2023/02/08 07:28:36;;;;;;;;;;;;;;;-4.03;73.75;103850.56;4105189;28;20061;-63
2023/02/08 07:30:38;;;;;;;;;;;;;;;-4.02;73.62;103843.53;4103866;28;20020;-63
2023/02/08 07:32:40;;;;;;;;;;;;;;;-4.05;73.57;103835.59;4104901;28;20033;-62
2023/02/08 07:34:41;;;;;;;;;;;;;;;-4.03;73.65;103836.47;4104886;28;20057;-64
2023/02/08 07:36:43;;;;;;;;;;;;;;;-4.04;73.62;103845.28;4107241;28;20033;-63
2023/02/08 07:38:45;;;;;;;;;;;;;;;-4.08;73.57;103841.75;4107557;28;20098;-63
2023/02/08 07:40:47;;;;;;;;;;;;;;;-4.06;73.77;103833.84;4107251;28;20014;-63
2023/02/08 07:42:51;;;;;;;;;;;;;;;-4.03;73.75;103845.28;4107809;28;20469;-63
2023/02/08 07:45:04;;;;;;;;;;;;;;;-4.00;73.79;103847.91;4105693;28;20037;-64
2023/02/08 07:47:06;;;;;;;;;;;;;;;-3.98;73.78;103840.00;4106890;28;20026;-63
2023/02/08 07:49:09;;;;;;;;;;;;;;;-3.96;73.91;103845.28;4106582;28;20017;-62
2023/02/08 07:51:11;;;;;;;;;;;;;;;-3.93;73.95;103845.22;4105720;28;20017;-63
2023/02/08 07:53:13;;;;;;;;;;;;;;;-3.89;74.26;103850.47;4107368;28;20021;-63
2023/02/08 07:55:15;;;;;;;;;;;;;;;-3.83;74.42;103852.22;4107721;28;20065;-62
2023/02/08 07:57:20;;;;;;;;;;;;;;;-3.76;74.49;103866.28;4106792;28;20409;-62
2023/02/08 07:59:23;;;;;;;;;;;;;;;-3.70;74.19;103866.25;4106803;28;20037;-63
2023/02/08 08:01:25;;;;;;;;;;;;;;;-3.64;74.16;103864.47;4106354;28;20014;-64
2023/02/08 08:03:27;;;;;;;;;;;;;;;-3.58;74.06;103867.97;4107477;28;20376;-64
2023/02/08 08:05:29;;;;;;;;;;;;;;;-3.52;73.87;103870.59;4106614;28;20460;-64
2023/02/08 08:07:31;;;;;;;;;;;;;;;-3.48;73.57;103872.31;4106759;28;20033;-63
2023/02/08 08:09:33;;;;;;;;;;;;;;;-3.44;73.40;103874.06;4107616;28;20108;-64
2023/02/08 08:11:35;;;;;;;;;;;;;;;-3.40;73.35;103874.91;4106388;28;20352;-65
2023/02/08 08:13:37;;;;;;;;;;;;;;;-3.37;73.32;103877.53;4106287;28;20021;-63
2023/02/08 08:15:40;;;;;;;;;;;;;;;-3.35;73.04;103883.69;4106047;28;20013;-63
2023/02/08 08:17:42;;;;;;;;;;;;;;;-3.28;73.32;103888.91;4107066;28;20017;-62
2023/02/08 08:19:44;;;;;;;;;;;;;;;-3.19;73.42;103895.91;4106719;28;20017;-63
2023/02/08 08:21:46;;;;;;;;;;;;;;;-3.13;73.41;103890.59;4106539;28;20020;-64
2023/02/08 08:23:48;;;;;;;;;;;;;;;-3.08;73.23;103891.44;4107459;28;20033;-63
2023/02/08 08:25:50;;;;;;;;;;;;;;;-3.01;73.14;103891.38;4121202;28;20021;-63
2023/02/08 08:27:52;;;;;;;;;;;;;;;-2.95;73.07;103889.56;4105857;28;20021;-64
2023/02/08 08:29:54;;;;;;;;;;;;;;;-2.90;72.70;103884.25;4106294;28;20046;-63
2023/02/08 08:31:58;;;;;;;;;;;;;;;-2.86;72.48;103893.06;4106480;28;20025;-65
2023/02/08 08:33:59;;;;;;;;;;;;;;;-2.83;72.47;103893.03;4106646;28;20033;-63
2023/02/08 08:36:01;;;;;;;;;;;;;;;-2.79;72.29;103897.38;4106051;28;20013;-64
2023/02/08 08:38:03;;;;;;;;;;;;;;;-2.77;72.29;103891.19;4106892;28;20614;-63
2023/02/08 08:40:06;;;;;;;;;;;;;;;-2.69;72.46;103892.91;4101068;28;20029;-63
2023/02/08 08:42:08;;;;;;;;;;;;;;;-2.64;72.42;103888.44;4101603;28;20073;-64
2023/02/08 08:44:10;;;;;;;;;;;;;;;-2.60;72.35;103885.75;4100203;28;20021;-64
2023/02/08 08:46:12;;;;;;;;;;;;;;;-2.56;72.42;103879.53;4100564;28;20010;-62
2023/02/08 08:48:15;;;;;;;;;;;;;;;-2.49;72.27;103877.72;4099446;28;20030;-64
2023/02/08 08:50:17;;;;;;;;;;;;;;;-2.42;72.51;103884.69;4098185;28;20514;-66
2023/02/08 08:52:19;;;;;;;;;;;;;;;-2.38;71.89;103891.72;4095101;28;20005;-64
2023/02/08 08:54:21;;;;;;;;;;;;;;;-2.34;71.95;103879.31;4098661;28;20032;-62
2023/02/08 08:56:23;;;;;;;;;;;;;;;-2.29;71.90;103874.84;4096748;28;20503;-62
2023/02/08 08:58:25;;;;;;;;;;;;;;;-2.23;71.99;103874.78;4098144;28;20025;-63
2023/02/08 09:00:27;;;;;;;;;;;;;;;-2.17;71.71;103876.50;4098706;28;20029;-62
2023/02/08 09:02:29;;;;;;;;;;;;;;;-2.11;71.31;103868.50;4096051;28;20025;-63
2023/02/08 09:04:33;;;;;;;;;;;;;;;-2.03;70.95;103865.75;4096317;28;20041;-62
2023/02/08 09:06:35;;;;;;;;;;;;;;;-1.96;70.92;103864.75;4098808;28;20013;-62
2023/02/08 09:08:37;;;;;;;;;;;;;;;-1.89;70.53;103860.28;4096063;28;21308;-63
2023/02/08 09:10:39;;;;;;;;;;;;;;;-1.86;70.00;103858.47;4094430;28;20025;-62
2023/02/08 09:12:41;;;;;;;;;;;;;;;-1.83;70.25;103866.38;4081605;28;20017;-61
2023/02/08 09:14:44;;;;;;;;;;;;;;;-1.81;69.79;103859.28;4094185;28;20033;-63
2023/02/08 09:16:47;;;;;;;;;;;;;;;-1.79;69.67;103853.09;4095005;28;20041;-63
2023/02/08 09:18:49;;;;;;;;;;;;;;;-1.77;69.84;103846.00;4096148;28;20384;-63
2023/02/08 09:20:52;;;;;;;;;;;;;;;-1.75;69.54;103849.53;4090085;28;20005;-63
2023/02/08 09:22:54;;;;;;;;;;;;;;;-1.72;69.64;103854.78;4097038;28;20021;-61
2023/02/08 09:24:56;;;;;;;;;;;;;;;-1.69;69.42;103850.31;4096655;28;20021;-62
2023/02/08 09:26:58;;;;;;;;;;;;;;;-1.66;69.38;103858.22;4097235;28;20065;-62
2023/02/08 09:29:00;;;;;;;;;;;;;;;-1.63;69.05;103859.94;4098261;28;19935;-62
2023/02/08 09:31:06;;;;;;;;;;;;;;;-1.65;68.47;103867.94;4100816;28;20024;-62
2023/02/08 09:33:08;;;;;;;;;;;;;;;-1.64;68.53;103874.09;4099814;28;20029;-60
2023/02/08 09:35:12;;;;;;;;;;;;;;;-1.64;68.40;103877.63;4098331;28;20032;-62
2023/02/08 09:37:16;;;;;;;;;;;;;;;-1.63;68.46;103883.78;4096874;28;20024;-62
2023/02/08 09:39:19;;;;;;;;;;;;;;;-1.57;68.79;103872.22;4094220;28;20057;-62
2023/02/08 09:41:24;;;;;;;;;;;;;;;-1.52;69.00;103873.94;4094303;28;20017;-61
2023/02/08 09:43:30;;;;;;;;;;;;;;;-1.47;68.77;103879.19;4095964;28;20126;-63
2023/02/08 09:45:35;;;;;;;;;;;;;;;-1.46;68.79;103878.25;4099980;28;20013;-61
2023/02/08 09:47:38;;;;;;;;;;;;;;;-1.41;68.71;103876.44;4100178;28;20580;-62
2023/02/08 09:49:41;;;;;;;;;;;;;;;-1.39;68.88;103864.03;4100052;28;20018;-63
2023/02/08 09:51:43;;;;;;;;;;;;;;;-1.38;68.41;103870.19;4095448;28;20021;-61
2023/02/08 09:53:49;;;;;;;;;;;;;;;-1.35;68.68;103864.84;4095683;28;20021;-62
2023/02/08 09:55:51;;;;;;;;;;;;;;;-1.29;68.54;103867.41;4093961;28;20037;-62
2023/02/08 09:57:53;;;;;;;;;;;;;;;-1.25;68.26;103863.81;4093419;28;20034;-61
2023/02/08 09:59:55;;;;;;;;;;;;;;;-1.25;68.20;103853.22;4096867;28;20013;-62
2023/02/08 10:02:00;;;;;;;;;;;;;;;-1.20;68.19;103845.19;4099500;28;20033;-62
2023/02/08 10:04:03;;;;;;;;;;;;;;;-1.18;66.80;103848.69;4099708;28;20361;-62
2023/02/08 10:06:05;;;;;;;;;;;;;;;-1.19;66.67;103847.81;4097404;28;20633;-61
2023/02/08 10:08:08;;;;;;;;;;;;;;;-1.16;67.45;103839.81;4096048;28;20752;-61
2023/02/08 10:10:14;;;;;;;;;;;;;;;-1.09;67.66;103838.78;4096175;28;19946;-62
2023/02/08 10:12:17;;;;;;;;;;;;;;;-1.03;67.59;103839.63;4096021;28;20017;-63
2023/02/08 10:14:34;;;;;;;;;;;;;;;-0.99;67.23;103839.53;4092886;28;20216;-62
2023/02/08 10:16:39;;;;;;;;;;;;;;;-0.95;66.88;103835.91;4095225;28;20045;-62
2023/02/08 10:18:43;;;;;;;;;;;;;;;-0.93;67.22;103834.09;4091624;28;20029;-61
2023/02/08 10:20:49;;;;;;;;;;;;;;;-0.91;66.63;103827.03;4097937;28;20139;-62
2023/02/08 10:22:54;;;;;;;;;;;;;;;-0.87;66.87;103830.47;4099616;28;20034;-61
2023/02/08 10:25:00;;;;;;;;;;;;;;;-0.83;66.56;103829.53;4099445;28;20417;-63
2023/02/08 10:27:05;;;;;;;;;;;;;;;-0.80;66.73;103815.31;4100840;28;20017;-62
2023/02/08 10:29:12;;;;;;;;;;;;;;;-0.76;66.67;103817.88;4099372;28;20017;-60
2023/02/08 10:31:16;;;;;;;;;;;;;;;-0.70;66.77;103814.25;4096336;28;19941;-61
2023/02/08 10:33:18;;;;;;;;;;;;;;;-0.67;66.72;103814.22;4100752;28;20026;-60